createdAt,value
2017-11-08T00:00:20.028Z,0.00
2017-11-08T00:01:20.033Z,0.00
2017-11-08T00:02:20.021Z,0.00
2017-11-08T00:03:20.016Z,0.00
2017-11-08T00:04:20.012Z,0.00
2017-11-08T00:05:20.009Z,0.00
2017-11-08T00:06:20.004Z,0.00
2017-11-08T00:07:19.999Z,0.00
2017-11-08T00:08:19.994Z,0.00
2017-11-08T00:09:19.991Z,0.00
2017-11-08T00:10:20.049Z,0.00
2017-11-08T00:11:19.982Z,0.00
2017-11-08T00:12:20.032Z,0.00
2017-11-08T00:13:19.974Z,0.00
2017-11-08T00:14:19.971Z,0.00
2017-11-08T00:15:19.967Z,0.00
2017-11-08T00:16:19.962Z,0.00
2017-11-08T00:17:19.956Z,0.00
2017-11-08T00:18:19.954Z,0.00
2017-11-08T00:19:19.947Z,0.00
2017-11-08T00:20:19.945Z,0.00
2017-11-08T00:21:19.942Z,0.00
2017-11-08T00:22:19.945Z,0.00
2017-11-08T00:23:19.933Z,0.00
2017-11-08T00:24:19.928Z,0.00
2017-11-08T00:25:19.924Z,0.00
2017-11-08T00:26:19.920Z,0.00
2017-11-08T00:27:19.914Z,0.00
2017-11-08T00:28:19.910Z,0.00
2017-11-08T00:29:19.955Z,0.00
2017-11-08T00:30:19.903Z,0.00
2017-11-08T00:31:19.900Z,0.00
2017-11-08T00:32:19.893Z,0.00
2017-11-08T00:33:19.889Z,0.00
2017-11-08T00:34:19.885Z,0.00
2017-11-08T00:35:19.929Z,0.00
2017-11-08T00:36:19.876Z,0.00
2017-11-08T00:37:19.871Z,0.00
2017-11-08T00:38:19.869Z,0.00
2017-11-08T00:39:19.863Z,0.00
2017-11-08T00:40:19.860Z,0.00
2017-11-08T00:41:19.860Z,0.00
2017-11-08T00:42:19.850Z,0.00
2017-11-08T00:43:19.846Z,0.00
2017-11-08T00:44:19.841Z,0.00
2017-11-08T00:45:19.837Z,0.00
2017-11-08T00:46:19.832Z,0.00
2017-11-08T00:47:19.827Z,0.00
2017-11-08T00:48:19.824Z,0.00
2017-11-08T00:49:19.820Z,0.00
2017-11-08T00:50:19.816Z,0.00
2017-11-08T00:51:19.810Z,0.00
2017-11-08T00:52:19.805Z,0.00
2017-11-08T00:53:19.801Z,0.00
2017-11-08T00:54:19.797Z,0.00
2017-11-08T00:55:19.792Z,0.00
2017-11-08T00:56:19.789Z,0.00
2017-11-08T00:57:19.785Z,0.00
2017-11-08T00:58:19.780Z,0.00
2017-11-08T00:59:19.775Z,0.00
2017-11-08T01:00:19.771Z,0.00
2017-11-08T01:01:19.766Z,0.00
2017-11-08T01:02:19.762Z,0.00
2017-11-08T01:03:19.757Z,0.00
2017-11-08T01:04:19.753Z,0.00
2017-11-08T01:05:19.749Z,0.00
2017-11-08T01:06:19.745Z,0.00
2017-11-08T01:07:19.739Z,0.00
2017-11-08T01:08:19.735Z,0.00
2017-11-08T01:09:19.730Z,0.00
2017-11-08T01:10:19.726Z,0.00
2017-11-08T01:11:19.723Z,0.00
2017-11-08T01:12:19.717Z,0.00
2017-11-08T01:13:19.712Z,0.00
2017-11-08T01:14:19.709Z,0.00
2017-11-08T01:15:19.702Z,0.00
2017-11-08T01:16:19.700Z,0.00
2017-11-08T01:17:19.710Z,0.00
2017-11-08T01:18:19.690Z,0.00
2017-11-08T01:19:19.684Z,0.00
2017-11-08T01:20:19.680Z,0.00
2017-11-08T01:21:19.677Z,0.00
2017-11-08T01:22:19.681Z,0.00
2017-11-08T01:23:19.665Z,0.00
2017-11-08T01:24:19.661Z,0.00
2017-11-08T01:25:19.657Z,0.00
2017-11-08T01:26:19.655Z,0.00
2017-11-08T01:27:19.697Z,0.00
2017-11-08T01:28:19.643Z,0.00
2017-11-08T01:29:19.639Z,0.00
2017-11-08T01:30:19.634Z,0.00
2017-11-08T01:31:19.629Z,0.00
2017-11-08T01:32:19.624Z,0.00
2017-11-08T01:33:19.621Z,0.00
2017-11-08T01:34:19.615Z,0.00
2017-11-08T01:35:19.610Z,0.00
2017-11-08T01:36:19.607Z,0.00
2017-11-08T01:37:19.615Z,0.00
2017-11-08T01:38:19.598Z,0.00
2017-11-08T01:39:19.595Z,0.00
2017-11-08T01:40:19.589Z,0.00
2017-11-08T01:41:19.585Z,0.00
2017-11-08T01:42:19.579Z,0.00
2017-11-08T01:43:19.574Z,0.00
2017-11-08T01:44:19.569Z,0.00
2017-11-08T01:45:19.565Z,0.00
2017-11-08T01:46:19.560Z,0.00
2017-11-08T01:47:19.555Z,0.00
2017-11-08T01:48:19.551Z,0.00
2017-11-08T01:49:19.546Z,0.00
2017-11-08T01:50:19.541Z,0.00
2017-11-08T01:51:19.536Z,0.00
2017-11-08T01:52:19.533Z,0.00
2017-11-08T01:53:19.528Z,0.00
2017-11-08T01:54:19.523Z,0.00
2017-11-08T01:55:19.518Z,0.00
2017-11-08T01:56:19.513Z,0.00
2017-11-08T01:57:19.512Z,0.00
2017-11-08T01:58:19.505Z,0.00
2017-11-08T01:59:19.499Z,0.00
2017-11-08T02:00:19.495Z,0.00
2017-11-08T02:01:19.492Z,0.00
2017-11-08T02:02:19.486Z,0.00
2017-11-08T02:03:19.480Z,0.00
2017-11-08T02:04:19.477Z,0.00
2017-11-08T02:05:19.472Z,0.00
2017-11-08T02:06:19.467Z,0.00
2017-11-08T02:07:19.462Z,0.00
2017-11-08T02:08:19.458Z,0.00
2017-11-08T02:09:19.453Z,0.00
2017-11-08T02:10:19.449Z,0.00
2017-11-08T02:11:19.443Z,0.00
2017-11-08T02:12:19.440Z,0.00
2017-11-08T02:13:19.435Z,0.00
2017-11-08T02:14:19.430Z,0.00
2017-11-08T02:15:19.425Z,0.00
2017-11-08T02:16:19.421Z,0.00
2017-11-08T02:17:19.415Z,0.00
2017-11-08T02:18:19.410Z,0.00
2017-11-08T02:19:19.405Z,0.00
2017-11-08T02:20:19.400Z,0.00
2017-11-08T02:21:19.396Z,0.00
2017-11-08T02:22:19.391Z,0.00
2017-11-08T02:23:19.385Z,0.00
2017-11-08T02:24:19.381Z,0.00
2017-11-08T02:25:19.377Z,0.00
2017-11-08T02:26:19.372Z,0.00
2017-11-08T02:27:19.366Z,0.00
2017-11-08T02:28:19.362Z,0.00
2017-11-08T02:29:19.358Z,0.00
2017-11-08T02:30:19.353Z,0.00
2017-11-08T02:31:19.347Z,0.00
2017-11-08T02:32:19.344Z,0.00
2017-11-08T02:33:19.339Z,0.00
2017-11-08T02:34:19.335Z,0.00
2017-11-08T02:35:19.334Z,0.00
2017-11-08T02:36:19.326Z,0.00
2017-11-08T02:37:19.321Z,0.00
2017-11-08T02:38:19.326Z,0.00
2017-11-08T02:39:19.312Z,0.00
2017-11-08T02:40:19.306Z,0.00
2017-11-08T02:41:19.302Z,0.00
2017-11-08T02:42:19.297Z,0.00
2017-11-08T02:43:19.290Z,0.00
2017-11-08T02:44:19.287Z,0.00
2017-11-08T02:45:19.284Z,0.00
2017-11-08T02:46:19.279Z,0.00
2017-11-08T02:47:19.276Z,0.00
2017-11-08T02:48:19.321Z,0.00
2017-11-08T02:49:19.266Z,0.00
2017-11-08T02:50:19.262Z,0.00
2017-11-08T02:51:19.256Z,0.00
2017-11-08T02:52:19.252Z,0.00
2017-11-08T02:53:19.249Z,0.00
2017-11-08T02:54:19.296Z,0.00
2017-11-08T02:55:19.237Z,0.00
2017-11-08T02:56:19.233Z,0.00
2017-11-08T02:57:19.230Z,0.00
2017-11-08T02:58:19.225Z,0.00
2017-11-08T02:59:19.219Z,0.00
2017-11-08T03:00:19.215Z,0.00
2017-11-08T03:01:19.210Z,0.00
2017-11-08T03:02:19.205Z,0.00
2017-11-08T03:03:19.200Z,0.00
2017-11-08T03:04:19.195Z,0.00
2017-11-08T03:05:19.191Z,0.00
2017-11-08T03:06:19.186Z,0.00
2017-11-08T03:07:19.181Z,0.00
2017-11-08T03:08:19.177Z,0.00
2017-11-08T03:09:19.172Z,0.00
2017-11-08T03:10:19.167Z,0.00
2017-11-08T03:11:19.162Z,0.00
2017-11-08T03:12:19.157Z,0.00
2017-11-08T03:13:19.153Z,0.00
2017-11-08T03:14:19.147Z,0.00
2017-11-08T03:15:19.140Z,0.00
2017-11-08T03:16:19.138Z,0.00
2017-11-08T03:17:19.132Z,0.00
2017-11-08T03:18:19.131Z,0.00
2017-11-08T03:19:19.123Z,0.00
2017-11-08T03:20:19.118Z,0.00
2017-11-08T03:21:19.114Z,0.00
2017-11-08T03:22:19.110Z,0.00
2017-11-08T03:23:19.104Z,0.00
2017-11-08T03:24:19.100Z,0.00
2017-11-08T03:25:19.094Z,0.00
2017-11-08T03:26:19.090Z,0.00
2017-11-08T03:27:19.084Z,0.00
2017-11-08T03:28:19.130Z,0.00
2017-11-08T03:29:19.076Z,0.00
2017-11-08T03:30:19.122Z,0.00
2017-11-08T03:31:19.083Z,0.00
2017-11-08T03:32:19.061Z,0.00
2017-11-08T03:33:19.057Z,0.00
2017-11-08T03:34:19.053Z,0.00
2017-11-08T03:35:19.047Z,0.00
2017-11-08T03:36:19.042Z,0.00
2017-11-08T03:37:19.038Z,0.00
2017-11-08T03:38:19.033Z,0.00
2017-11-08T03:39:19.039Z,0.00
2017-11-08T03:40:19.022Z,0.00
2017-11-08T03:41:19.020Z,0.00
2017-11-08T03:42:19.014Z,0.00
2017-11-08T03:43:19.008Z,0.00
2017-11-08T03:44:19.004Z,0.00
2017-11-08T03:45:19.000Z,0.00
2017-11-08T03:46:19.002Z,0.00
2017-11-08T03:47:18.990Z,0.00
2017-11-08T03:48:18.985Z,0.00
2017-11-08T03:49:18.981Z,0.00
2017-11-08T03:50:18.976Z,0.00
2017-11-08T03:51:18.971Z,0.00
2017-11-08T03:52:18.971Z,0.00
2017-11-08T03:53:18.961Z,0.00
2017-11-08T03:54:18.956Z,0.00
2017-11-08T03:55:18.952Z,0.00
2017-11-08T03:56:18.947Z,0.00
2017-11-08T03:57:18.941Z,0.00
2017-11-08T03:58:18.937Z,0.00
2017-11-08T03:59:18.932Z,0.00
2017-11-08T04:00:18.927Z,0.00
2017-11-08T04:01:18.923Z,0.00
2017-11-08T04:02:18.922Z,0.00
2017-11-08T04:03:18.919Z,0.00
2017-11-08T04:04:18.909Z,0.00
2017-11-08T04:05:18.903Z,0.00
2017-11-08T04:06:18.898Z,0.00
2017-11-08T04:07:18.894Z,0.00
2017-11-08T04:08:18.889Z,0.00
2017-11-08T04:09:18.884Z,0.00
2017-11-08T04:10:18.880Z,0.00
2017-11-08T04:11:18.879Z,0.00
2017-11-08T04:12:18.871Z,0.00
2017-11-08T04:13:18.867Z,0.00
2017-11-08T04:14:18.861Z,0.00
2017-11-08T04:15:18.855Z,0.00
2017-11-08T04:16:18.852Z,0.00
2017-11-08T04:17:18.846Z,0.00
2017-11-08T04:18:18.843Z,0.00
2017-11-08T04:19:18.836Z,0.00
2017-11-08T04:20:18.831Z,0.00
2017-11-08T04:21:18.828Z,0.00
2017-11-08T04:22:18.823Z,0.00
2017-11-08T04:23:18.817Z,0.00
2017-11-08T04:24:18.813Z,0.00
2017-11-08T04:25:18.809Z,0.00
2017-11-08T04:26:18.804Z,0.00
2017-11-08T04:27:18.798Z,0.00
2017-11-08T04:28:18.794Z,0.00
2017-11-08T04:29:18.790Z,0.00
2017-11-08T04:30:18.787Z,0.00
2017-11-08T04:31:18.781Z,0.00
2017-11-08T04:32:18.776Z,0.00
2017-11-08T04:33:18.772Z,0.00
2017-11-08T04:34:18.769Z,0.00
2017-11-08T04:35:18.762Z,0.00
2017-11-08T04:36:18.757Z,0.00
2017-11-08T04:37:18.753Z,0.00
2017-11-08T04:38:18.748Z,0.00
2017-11-08T04:39:18.742Z,0.00
2017-11-08T04:40:18.738Z,0.00
2017-11-08T04:41:18.734Z,0.00
2017-11-08T04:42:18.730Z,0.00
2017-11-08T04:43:18.724Z,0.00
2017-11-08T04:44:18.732Z,0.00
2017-11-08T04:45:18.717Z,0.00
2017-11-08T04:46:18.711Z,0.00
2017-11-08T04:47:18.705Z,0.00
2017-11-08T04:48:18.700Z,0.00
2017-11-08T04:49:18.696Z,0.00
2017-11-08T04:50:18.692Z,0.00
2017-11-08T04:51:18.687Z,0.00
2017-11-08T04:52:18.682Z,0.00
2017-11-08T04:53:18.677Z,0.00
2017-11-08T04:54:18.672Z,0.00
2017-11-08T04:55:18.668Z,0.00
2017-11-08T04:56:18.663Z,0.00
2017-11-08T04:57:18.659Z,0.00
2017-11-08T04:58:18.654Z,0.00
2017-11-08T04:59:18.648Z,0.00
2017-11-08T05:00:18.643Z,0.00
2017-11-08T05:01:18.640Z,0.00
2017-11-08T05:02:18.635Z,0.00
2017-11-08T05:03:18.630Z,0.00
2017-11-08T05:04:18.623Z,0.00
2017-11-08T05:05:18.620Z,0.00
2017-11-08T05:06:18.614Z,0.00
2017-11-08T05:07:18.609Z,0.00
2017-11-08T05:08:18.606Z,0.00
2017-11-08T05:09:18.601Z,0.00
2017-11-08T05:10:18.599Z,0.00
2017-11-08T05:11:18.590Z,0.00
2017-11-08T05:12:18.586Z,0.00
2017-11-08T05:13:18.584Z,0.00
2017-11-08T05:14:18.576Z,0.00
2017-11-08T05:15:18.574Z,0.00
2017-11-08T05:16:18.565Z,0.00
2017-11-08T05:17:18.563Z,0.00
2017-11-08T05:18:18.556Z,0.00
2017-11-08T05:19:18.550Z,0.00
2017-11-08T05:20:18.548Z,0.00
2017-11-08T05:21:18.543Z,0.00
2017-11-08T05:22:18.538Z,0.00
2017-11-08T05:23:18.533Z,0.00
2017-11-08T05:24:18.527Z,0.00
2017-11-08T05:25:18.529Z,0.00
2017-11-08T05:26:18.518Z,0.00
2017-11-08T05:27:18.513Z,0.00
2017-11-08T05:28:18.508Z,0.00
2017-11-08T05:29:18.503Z,0.00
2017-11-08T05:30:18.798Z,0.00
2017-11-08T05:31:18.491Z,0.00
2017-11-08T05:32:18.487Z,0.00
2017-11-08T05:33:18.482Z,0.00
2017-11-08T05:34:18.478Z,0.00
2017-11-08T05:35:18.472Z,0.00
2017-11-08T05:36:18.767Z,0.00
2017-11-08T05:37:18.464Z,4.00
2017-11-08T05:38:18.457Z,4.00
2017-11-08T05:39:18.452Z,4.00
2017-11-08T05:40:18.446Z,0.00
2017-11-08T05:41:18.442Z,0.00
2017-11-08T05:42:18.436Z,4.00
2017-11-08T05:43:18.429Z,4.00
2017-11-08T05:44:18.425Z,4.00
2017-11-08T05:45:18.422Z,8.00
2017-11-08T05:46:18.417Z,8.00
2017-11-08T05:47:18.410Z,8.00
2017-11-08T05:48:18.455Z,8.00
2017-11-08T05:49:18.400Z,12.00
2017-11-08T05:50:18.396Z,16.00
2017-11-08T05:51:18.390Z,16.00
2017-11-08T05:52:18.385Z,20.00
2017-11-08T05:53:18.379Z,24.00
2017-11-08T05:54:18.375Z,28.00
2017-11-08T05:55:18.370Z,36.00
2017-11-08T05:56:18.364Z,40.00
2017-11-08T05:57:18.359Z,44.00
2017-11-08T05:58:18.354Z,52.00
2017-11-08T05:59:18.349Z,60.00
2017-11-08T06:00:18.342Z,72.00
2017-11-08T06:01:18.338Z,80.00
2017-11-08T06:02:18.333Z,88.00
2017-11-08T06:03:18.326Z,100.00
2017-11-08T06:04:18.322Z,108.00
2017-11-08T06:05:18.318Z,124.00
2017-11-08T06:06:18.365Z,136.00
2017-11-08T06:07:18.307Z,152.00
2017-11-08T06:08:18.302Z,164.00
2017-11-08T06:09:18.296Z,180.00
2017-11-08T06:10:18.341Z,196.00
2017-11-08T06:11:18.286Z,212.00
2017-11-08T06:12:18.281Z,228.00
2017-11-08T06:13:18.276Z,244.00
2017-11-08T06:14:18.271Z,264.00
2017-11-08T06:15:18.264Z,280.00
2017-11-08T06:16:18.260Z,304.00
2017-11-08T06:17:18.255Z,336.00
2017-11-08T06:18:18.248Z,380.00
2017-11-08T06:19:18.244Z,440.00
2017-11-08T06:20:18.239Z,504.00
2017-11-08T06:21:18.235Z,572.00
2017-11-08T06:22:18.230Z,632.00
2017-11-08T06:23:18.224Z,696.00
2017-11-08T06:24:18.219Z,776.00
2017-11-08T06:25:18.214Z,852.00
2017-11-08T06:26:18.210Z,920.00
2017-11-08T06:27:18.203Z,996.00
2017-11-08T06:28:18.199Z,1068.00
2017-11-08T06:29:18.199Z,1144.00
2017-11-08T06:30:18.189Z,1212.00
2017-11-08T06:31:18.183Z,1288.00
2017-11-08T06:32:18.179Z,1368.00
2017-11-08T06:33:18.173Z,1468.00
2017-11-08T06:34:18.170Z,1440.00
2017-11-08T06:35:18.164Z,1436.00
2017-11-08T06:36:18.158Z,1544.00
2017-11-08T06:37:18.155Z,1692.00
2017-11-08T06:38:18.152Z,2468.00
2017-11-08T06:39:18.146Z,2720.00
2017-11-08T06:40:18.191Z,2212.00
2017-11-08T06:41:18.136Z,2092.00
2017-11-08T06:42:18.130Z,2476.00
2017-11-08T06:43:18.125Z,2136.00
2017-11-08T06:44:18.121Z,2044.00
2017-11-08T06:45:18.116Z,4580.00
2017-11-08T06:46:18.112Z,5656.00
2017-11-08T06:47:18.107Z,5408.00
2017-11-08T06:48:18.101Z,5616.00
2017-11-08T06:49:18.104Z,3480.00
2017-11-08T06:50:18.093Z,3516.00
2017-11-08T06:51:18.089Z,3928.00
2017-11-08T06:52:18.083Z,3104.00
2017-11-08T06:53:18.079Z,2772.00
2017-11-08T06:54:18.074Z,3028.00
2017-11-08T06:55:18.118Z,6156.00
2017-11-08T06:56:18.069Z,8496.00
2017-11-08T06:57:18.060Z,9216.00
2017-11-08T06:58:18.057Z,11284.00
2017-11-08T06:59:18.052Z,14624.00
2017-11-08T07:00:18.047Z,12732.00
2017-11-08T07:01:18.044Z,11376.00
2017-11-08T07:02:18.042Z,10832.00
2017-11-08T07:03:18.035Z,9300.00
2017-11-08T07:04:18.032Z,6800.00
2017-11-08T07:05:18.033Z,4596.00
2017-11-08T07:06:18.026Z,3068.00
2017-11-08T07:07:18.021Z,3180.00
2017-11-08T07:08:18.018Z,3672.00
2017-11-08T07:09:18.013Z,3864.00
2017-11-08T07:10:18.011Z,3996.00
2017-11-08T07:11:18.056Z,11224.00
2017-11-08T07:12:18.006Z,21216.00
2017-11-08T07:13:17.999Z,31680.00
2017-11-08T07:14:17.997Z,34816.00
2017-11-08T07:15:17.994Z,37152.00
2017-11-08T07:16:17.996Z,34656.00
2017-11-08T07:17:17.988Z,31296.00
2017-11-08T07:18:17.987Z,27744.00
2017-11-08T07:19:17.987Z,32480.00
2017-11-08T07:20:17.984Z,27424.00
2017-11-08T07:21:17.983Z,13796.00
2017-11-08T07:22:17.985Z,14500.00
2017-11-08T07:23:17.981Z,27904.00
2017-11-08T07:24:17.981Z,30848.00
2017-11-08T07:25:17.980Z,31712.00
2017-11-08T07:26:17.981Z,41696.00
2017-11-08T07:27:17.981Z,45888.00
2017-11-08T07:28:17.982Z,48384.00
2017-11-08T07:29:17.984Z,45632.00
2017-11-08T07:30:17.984Z,36288.00
2017-11-08T07:31:17.993Z,40992.00
2017-11-08T07:32:17.988Z,59136.00
2017-11-08T07:33:17.991Z,50624.00
2017-11-08T07:34:17.992Z,42944.00
2017-11-08T07:35:17.994Z,50752.00
2017-11-08T07:36:17.998Z,53088.00
2017-11-08T07:37:18.049Z,26752.00
2017-11-08T07:38:18.003Z,38400.00
2017-11-08T07:39:18.006Z,25856.00
2017-11-08T07:40:18.010Z,31200.00
2017-11-08T07:41:18.012Z,39136.00
2017-11-08T07:42:18.016Z,38816.00
2017-11-08T07:43:18.018Z,39104.00
2017-11-08T07:44:18.028Z,32000.00
2017-11-08T07:45:18.027Z,31296.00
2017-11-08T07:46:18.030Z,33888.00
2017-11-08T07:47:18.038Z,41824.00
2017-11-08T07:48:18.036Z,52416.00
2017-11-08T07:49:18.039Z,57152.00
2017-11-08T07:50:18.044Z,60160.00
2017-11-08T07:51:18.046Z,50752.00
2017-11-08T07:52:18.052Z,47616.00
2017-11-08T07:53:18.058Z,56512.00
2017-11-08T07:54:18.062Z,49440.00
2017-11-08T07:55:18.070Z,36320.00
2017-11-08T07:56:18.071Z,18624.00
2017-11-08T07:57:18.079Z,6548.00
2017-11-08T07:58:18.084Z,6920.00
2017-11-08T07:59:18.132Z,14884.00
2017-11-08T08:00:18.092Z,21568.00
2017-11-08T08:01:18.099Z,20256.00
2017-11-08T08:02:18.102Z,12316.00
2017-11-08T08:03:18.106Z,5984.00
2017-11-08T08:04:18.111Z,5748.00
2017-11-08T08:05:18.113Z,5740.00
2017-11-08T08:06:18.119Z,5768.00
2017-11-08T08:07:18.120Z,11360.00
2017-11-08T08:08:18.124Z,18144.00
2017-11-08T08:09:18.127Z,15776.00
2017-11-08T08:10:18.138Z,21888.00
2017-11-08T08:11:18.130Z,19936.00
2017-11-08T08:12:18.132Z,14492.00
2017-11-08T08:13:18.135Z,14284.00
2017-11-08T08:14:18.149Z,19744.00
2017-11-08T08:15:18.137Z,20544.00
2017-11-08T08:16:18.140Z,19872.00
2017-11-08T08:17:18.142Z,21600.00
2017-11-08T08:18:18.143Z,20992.00
2017-11-08T08:19:18.143Z,19104.00
2017-11-08T08:20:18.145Z,21920.00
2017-11-08T08:21:18.154Z,18592.00
2017-11-08T08:22:18.150Z,21504.00
2017-11-08T08:23:18.150Z,20064.00
2017-11-08T08:24:18.151Z,14888.00
2017-11-08T08:25:18.155Z,12764.00
2017-11-08T08:26:18.156Z,13920.00
2017-11-08T08:27:18.209Z,16736.00
2017-11-08T08:28:18.158Z,14236.00
2017-11-08T08:29:18.163Z,8420.00
2017-11-08T08:30:18.161Z,5756.00
2017-11-08T08:31:18.162Z,5660.00
2017-11-08T08:32:18.163Z,5552.00
2017-11-08T08:33:18.163Z,5508.00
2017-11-08T08:34:18.165Z,5492.00
2017-11-08T08:35:18.164Z,5432.00
2017-11-08T08:36:18.164Z,5500.00
2017-11-08T08:37:18.166Z,6260.00
2017-11-08T08:38:18.166Z,5440.00
2017-11-08T08:39:18.164Z,5444.00
2017-11-08T08:40:18.164Z,10728.00
2017-11-08T08:41:18.164Z,21664.00
2017-11-08T08:42:18.165Z,27168.00
2017-11-08T08:43:18.162Z,25888.00
2017-11-08T08:44:18.162Z,23840.00
2017-11-08T08:45:18.161Z,20832.00
2017-11-08T08:46:18.177Z,15264.00
2017-11-08T08:47:18.160Z,12856.00
2017-11-08T08:48:18.159Z,9412.00
2017-11-08T08:49:18.160Z,9884.00
2017-11-08T08:50:18.160Z,10308.00
2017-11-08T08:51:18.159Z,10940.00
2017-11-08T08:52:18.159Z,9748.00
2017-11-08T08:53:18.158Z,8192.00
2017-11-08T08:54:18.159Z,13280.00
2017-11-08T08:55:18.157Z,15484.00
2017-11-08T08:56:18.165Z,15544.00
2017-11-08T08:57:18.157Z,15188.00
2017-11-08T08:58:18.156Z,21120.00
2017-11-08T08:59:18.156Z,25568.00
2017-11-08T09:00:18.155Z,20000.00
2017-11-08T09:01:18.154Z,20640.00
2017-11-08T09:02:18.205Z,12808.00
2017-11-08T09:03:18.154Z,7788.00
2017-11-08T09:04:18.154Z,8572.00
2017-11-08T09:05:18.155Z,21088.00
2017-11-08T09:06:18.155Z,29920.00
2017-11-08T09:07:18.153Z,26944.00
2017-11-08T09:08:18.155Z,23936.00
2017-11-08T09:09:18.155Z,22624.00
2017-11-08T09:10:18.156Z,29440.00
2017-11-08T09:11:18.155Z,31008.00
2017-11-08T09:12:18.159Z,26400.00
2017-11-08T09:13:18.157Z,30176.00
2017-11-08T09:14:18.160Z,25152.00
2017-11-08T09:15:18.160Z,17856.00
2017-11-08T09:16:18.166Z,21984.00
2017-11-08T09:17:18.163Z,24096.00
2017-11-08T09:18:18.165Z,30784.00
2017-11-08T09:19:18.165Z,30048.00
2017-11-08T09:20:18.171Z,14876.00
2017-11-08T09:21:18.169Z,12428.00
2017-11-08T09:22:18.171Z,11044.00
2017-11-08T09:23:18.172Z,11004.00
2017-11-08T09:24:18.174Z,10944.00
2017-11-08T09:25:18.175Z,11532.00
2017-11-08T09:26:18.177Z,9972.00
2017-11-08T09:27:18.178Z,9268.00
2017-11-08T09:28:18.180Z,11080.00
2017-11-08T09:29:18.184Z,10428.00
2017-11-08T09:30:18.189Z,11704.00
2017-11-08T09:31:18.187Z,11724.00
2017-11-08T09:32:18.189Z,11544.00
2017-11-08T09:33:18.241Z,11100.00
2017-11-08T09:34:18.193Z,13244.00
2017-11-08T09:35:18.194Z,18016.00
2017-11-08T09:36:18.196Z,22848.00
2017-11-08T09:37:18.207Z,26464.00
2017-11-08T09:38:18.202Z,20064.00
2017-11-08T09:39:18.203Z,6528.00
2017-11-08T09:40:18.206Z,6132.00
2017-11-08T09:41:18.211Z,6636.00
2017-11-08T09:42:18.213Z,6716.00
2017-11-08T09:43:18.213Z,6264.00
2017-11-08T09:44:18.215Z,6272.00
2017-11-08T09:45:18.268Z,6320.00
2017-11-08T09:46:18.219Z,6220.00
2017-11-08T09:47:18.220Z,6116.00
2017-11-08T09:48:18.221Z,5996.00
2017-11-08T09:49:18.224Z,6020.00
2017-11-08T09:50:18.225Z,6064.00
2017-11-08T09:51:18.225Z,6344.00
2017-11-08T09:52:18.225Z,6880.00
2017-11-08T09:53:18.226Z,7068.00
2017-11-08T09:54:18.226Z,7004.00
2017-11-08T09:55:18.227Z,6872.00
2017-11-08T09:56:18.227Z,6896.00
2017-11-08T09:57:18.227Z,6880.00
2017-11-08T09:58:18.228Z,7208.00
2017-11-08T09:59:18.228Z,7824.00
2017-11-08T10:00:18.228Z,8152.00
2017-11-08T10:01:18.227Z,8224.00
2017-11-08T10:02:18.228Z,9380.00
2017-11-08T10:03:18.228Z,11596.00
2017-11-08T10:04:18.228Z,16252.00
2017-11-08T10:05:18.228Z,13688.00
2017-11-08T10:06:18.254Z,11112.00
2017-11-08T10:07:18.233Z,9552.00
2017-11-08T10:08:18.230Z,8176.00
2017-11-08T10:09:18.247Z,7012.00
2017-11-08T10:10:18.230Z,5992.00
2017-11-08T10:11:18.229Z,5016.00
2017-11-08T10:12:18.318Z,4228.00
2017-11-08T10:13:18.261Z,3684.00
2017-11-08T10:14:18.241Z,3272.00
2017-11-08T10:15:18.248Z,2944.00
2017-11-08T10:16:18.227Z,2696.00
2017-11-08T10:17:18.226Z,2492.00
2017-11-08T10:18:18.226Z,2340.00
2017-11-08T10:19:18.224Z,2192.00
2017-11-08T10:20:18.276Z,2052.00
2017-11-08T10:21:18.284Z,1936.00
2017-11-08T10:22:18.224Z,1828.00
2017-11-08T10:23:18.222Z,1736.00
2017-11-08T10:24:18.222Z,1632.00
2017-11-08T10:25:18.223Z,1552.00
2017-11-08T10:26:18.220Z,1480.00
2017-11-08T10:27:18.224Z,1404.00
2017-11-08T10:28:18.218Z,1324.00
2017-11-08T10:29:18.222Z,1248.00
2017-11-08T10:30:18.218Z,1180.00
2017-11-08T10:31:18.214Z,1116.00
2017-11-08T10:32:18.213Z,1056.00
2017-11-08T10:33:18.211Z,1004.00
2017-11-08T10:34:18.211Z,952.00
2017-11-08T10:35:18.207Z,900.00
2017-11-08T10:36:18.208Z,860.00
2017-11-08T10:37:18.206Z,820.00
2017-11-08T10:38:18.254Z,796.00
2017-11-08T10:39:18.203Z,784.00
2017-11-08T10:40:18.202Z,776.00
2017-11-08T10:41:18.203Z,780.00
2017-11-08T10:42:18.163Z,784.00
2017-11-08T10:43:18.165Z,780.00
2017-11-08T10:44:18.173Z,780.00
2017-11-08T10:45:18.156Z,796.00
2017-11-08T10:46:18.156Z,828.00
2017-11-08T10:47:18.153Z,868.00
2017-11-08T10:48:18.152Z,908.00
2017-11-08T10:49:18.149Z,944.00
2017-11-08T10:50:18.149Z,976.00
2017-11-08T10:51:18.145Z,996.00
2017-11-08T10:52:18.142Z,1004.00
2017-11-08T10:53:18.140Z,1008.00
2017-11-08T10:54:18.143Z,1016.00
2017-11-08T10:55:18.137Z,1020.00
2017-11-08T10:56:18.134Z,1036.00
2017-11-08T10:57:18.131Z,1060.00
2017-11-08T10:58:18.127Z,1080.00
2017-11-08T10:59:18.125Z,1092.00
2017-11-08T11:00:18.126Z,1092.00
2017-11-08T11:01:18.122Z,1096.00
2017-11-08T11:02:18.128Z,1104.00
2017-11-08T11:03:18.117Z,1124.00
2017-11-08T11:04:18.116Z,1152.00
2017-11-08T11:05:18.115Z,1188.00
2017-11-08T11:06:18.112Z,1212.00
2017-11-08T11:07:18.108Z,1236.00
2017-11-08T11:08:18.110Z,1256.00
2017-11-08T11:09:18.105Z,1272.00
2017-11-08T11:10:18.104Z,1284.00
2017-11-08T11:11:18.100Z,1296.00
2017-11-08T11:12:18.099Z,1292.00
2017-11-08T11:13:18.098Z,1280.00
2017-11-08T11:14:18.095Z,1272.00
2017-11-08T11:15:18.092Z,1268.00
2017-11-08T11:16:18.097Z,1268.00
2017-11-08T11:17:18.088Z,1276.00
2017-11-08T11:18:18.087Z,1280.00
2017-11-08T11:19:18.084Z,1284.00
2017-11-08T11:20:18.081Z,1288.00
2017-11-08T11:21:18.079Z,1292.00
2017-11-08T11:22:18.079Z,1296.00
2017-11-08T11:23:18.076Z,1308.00
2017-11-08T11:24:18.073Z,1308.00
2017-11-08T11:25:18.071Z,1312.00
2017-11-08T11:26:18.072Z,1324.00
2017-11-08T11:27:18.067Z,1320.00
2017-11-08T11:28:18.066Z,1288.00
2017-11-08T11:29:18.064Z,1276.00
2017-11-08T11:30:18.080Z,1288.00
2017-11-08T11:31:18.058Z,1312.00
2017-11-08T11:32:18.059Z,1344.00
2017-11-08T11:33:18.054Z,1388.00
2017-11-08T11:34:18.053Z,1424.00
2017-11-08T11:35:18.049Z,1448.00
2017-11-08T11:36:18.049Z,1468.00
2017-11-08T11:37:18.046Z,1472.00
2017-11-08T11:38:18.043Z,1456.00
2017-11-08T11:39:18.040Z,1444.00
2017-11-08T11:40:18.039Z,1424.00
2017-11-08T11:41:18.037Z,1416.00
2017-11-08T11:42:18.035Z,1424.00
2017-11-08T11:43:18.033Z,1436.00
2017-11-08T11:44:18.030Z,1444.00
2017-11-08T11:45:18.028Z,1432.00
2017-11-08T11:46:18.027Z,1396.00
2017-11-08T11:47:18.021Z,1368.00
2017-11-08T11:48:18.022Z,1360.00
2017-11-08T11:49:18.019Z,1352.00
2017-11-08T11:50:18.018Z,1348.00
2017-11-08T11:51:18.019Z,1340.00
2017-11-08T11:52:18.012Z,1344.00
2017-11-08T11:53:18.011Z,1328.00
2017-11-08T11:54:18.008Z,1312.00
2017-11-08T11:55:18.005Z,1292.00
2017-11-08T11:56:18.003Z,1280.00
2017-11-08T11:57:18.000Z,1276.00
2017-11-08T11:58:18.000Z,1288.00
2017-11-08T11:59:17.996Z,1300.00
2017-11-08T12:00:17.993Z,1312.00
2017-11-08T12:01:17.991Z,1320.00
2017-11-08T12:02:17.989Z,1320.00
2017-11-08T12:03:17.986Z,1316.00
2017-11-08T12:04:17.986Z,1312.00
2017-11-08T12:05:17.982Z,1312.00
2017-11-08T12:06:17.980Z,1304.00
2017-11-08T12:07:17.976Z,1292.00
2017-11-08T12:08:17.974Z,1268.00
2017-11-08T12:09:17.973Z,1244.00
2017-11-08T12:10:17.969Z,1212.00
2017-11-08T12:11:17.966Z,1196.00
2017-11-08T12:12:17.965Z,1184.00
2017-11-08T12:13:17.964Z,1180.00
2017-11-08T12:14:17.961Z,1172.00
2017-11-08T12:15:18.007Z,1168.00
2017-11-08T12:16:17.955Z,1164.00
2017-11-08T12:17:17.953Z,1164.00
2017-11-08T12:18:17.951Z,1160.00
2017-11-08T12:19:17.949Z,1156.00
2017-11-08T12:20:17.947Z,1152.00
2017-11-08T12:21:17.952Z,1152.00
2017-11-08T12:22:17.943Z,1152.00
2017-11-08T12:23:17.938Z,1156.00
2017-11-08T12:24:17.935Z,1168.00
2017-11-08T12:25:17.935Z,1176.00
2017-11-08T12:26:17.931Z,1180.00
2017-11-08T12:27:17.928Z,1180.00
2017-11-08T12:28:17.927Z,1176.00
2017-11-08T12:29:17.923Z,1160.00
2017-11-08T12:30:17.923Z,1140.00
2017-11-08T12:31:17.917Z,1128.00
2017-11-08T12:32:17.921Z,1112.00
2017-11-08T12:33:17.914Z,1104.00
2017-11-08T12:34:17.912Z,1092.00
2017-11-08T12:35:17.909Z,1080.00